sensor_id;sensor_type;location;lat;lon;timestamp;P1;durP1;ratioP1;P2;durP2;ratioP2
73219;SDS011;61434;43.538;-5.688;2022-12-24T00:01:32;9.50;;;2.00;;
73219;SDS011;61434;43.538;-5.688;2022-12-24T00:03:57;7.63;;;2.00;;
73219;SDS011;61434;43.538;-5.688;2022-12-24T00:06:23;9.65;;;2.03;;
73219;SDS011;61434;43.538;-5.688;2022-12-24T00:08:48;8.07;;;2.20;;
73219;SDS011;61434;43.538;-5.688;2022-12-24T00:11:17;11.98;;;2.42;;
73219;SDS011;61434;43.538;-5.688;2022-12-24T00:13:43;8.13;;;1.92;;
73219;SDS011;61434;43.538;-5.688;2022-12-24T00:16:08;10.77;;;2.10;;
73219;SDS011;61434;43.538;-5.688;2022-12-24T00:18:34;8.77;;;1.83;;
73219;SDS011;61434;43.538;-5.688;2022-12-24T00:20:59;7.93;;;2.07;;
73219;SDS011;61434;43.538;-5.688;2022-12-24T00:23:28;7.95;;;2.13;;
73219;SDS011;61434;43.538;-5.688;2022-12-24T00:25:53;10.55;;;2.38;;
73219;SDS011;61434;43.538;-5.688;2022-12-24T00:28:19;7.90;;;1.73;;
73219;SDS011;61434;43.538;-5.688;2022-12-24T00:30:45;7.63;;;1.88;;
73219;SDS011;61434;43.538;-5.688;2022-12-24T00:33:11;6.47;;;2.13;;
73219;SDS011;61434;43.538;-5.688;2022-12-24T00:35:37;7.00;;;2.00;;
73219;SDS011;61434;43.538;-5.688;2022-12-24T00:38:03;8.25;;;2.20;;
73219;SDS011;61434;43.538;-5.688;2022-12-24T00:40:29;7.17;;;1.30;;
73219;SDS011;61434;43.538;-5.688;2022-12-24T00:42:55;7.63;;;1.45;;
73219;SDS011;61434;43.538;-5.688;2022-12-24T00:45:21;5.88;;;1.30;;
73219;SDS011;61434;43.538;-5.688;2022-12-24T00:47:47;5.90;;;1.30;;
73219;SDS011;61434;43.538;-5.688;2022-12-24T00:50:12;7.40;;;1.40;;
73219;SDS011;61434;43.538;-5.688;2022-12-24T00:52:38;6.23;;;1.50;;
73219;SDS011;61434;43.538;-5.688;2022-12-24T00:55:04;7.73;;;1.53;;
73219;SDS011;61434;43.538;-5.688;2022-12-24T00:57:29;7.85;;;1.30;;
73219;SDS011;61434;43.538;-5.688;2022-12-24T00:59:55;7.70;;;1.80;;
73219;SDS011;61434;43.538;-5.688;2022-12-24T01:02:20;9.33;;;1.97;;
73219;SDS011;61434;43.538;-5.688;2022-12-24T01:04:46;7.32;;;1.50;;
73219;SDS011;61434;43.538;-5.688;2022-12-24T01:07:30;5.63;;;1.25;;
73219;SDS011;61434;43.538;-5.688;2022-12-24T01:09:55;7.57;;;1.47;;
73219;SDS011;61434;43.538;-5.688;2022-12-24T01:12:21;6.47;;;1.50;;
73219;SDS011;61434;43.538;-5.688;2022-12-24T01:14:47;5.97;;;1.35;;
73219;SDS011;61434;43.538;-5.688;2022-12-24T01:17:12;8.03;;;1.43;;
73219;SDS011;61434;43.538;-5.688;2022-12-24T01:19:38;7.45;;;1.30;;
73219;SDS011;61434;43.538;-5.688;2022-12-24T01:22:03;7.07;;;1.43;;
73219;SDS011;61434;43.538;-5.688;2022-12-24T01:24:29;7.73;;;1.60;;
73219;SDS011;61434;43.538;-5.688;2022-12-24T01:26:54;5.40;;;1.23;;
73219;SDS011;61434;43.538;-5.688;2022-12-24T01:29:20;9.37;;;1.67;;
73219;SDS011;61434;43.538;-5.688;2022-12-24T01:31:45;7.00;;;1.57;;
73219;SDS011;61434;43.538;-5.688;2022-12-24T01:34:11;9.00;;;1.77;;
73219;SDS011;61434;43.538;-5.688;2022-12-24T01:36:36;7.27;;;1.07;;
73219;SDS011;61434;43.538;-5.688;2022-12-24T01:39:02;9.00;;;1.83;;
73219;SDS011;61434;43.538;-5.688;2022-12-24T01:41:28;12.47;;;1.50;;
73219;SDS011;61434;43.538;-5.688;2022-12-24T01:46:45;7.05;;;1.83;;
73219;SDS011;61434;43.538;-5.688;2022-12-24T01:49:15;6.40;;;1.45;;
73219;SDS011;61434;43.538;-5.688;2022-12-24T01:51:43;4.97;;;1.30;;
73219;SDS011;61434;43.538;-5.688;2022-12-24T01:56:39;4.57;;;1.00;;
73219;SDS011;61434;43.538;-5.688;2022-12-24T01:59:11;5.27;;;1.10;;
73219;SDS011;61434;43.538;-5.688;2022-12-24T02:01:39;4.07;;;1.00;;
73219;SDS011;61434;43.538;-5.688;2022-12-24T02:04:12;4.35;;;1.10;;
73219;SDS011;61434;43.538;-5.688;2022-12-24T02:06:50;4.90;;;1.17;;
73219;SDS011;61434;43.538;-5.688;2022-12-24T02:09:15;4.13;;;0.90;;
73219;SDS011;61434;43.538;-5.688;2022-12-24T02:11:42;5.55;;;1.30;;
73219;SDS011;61434;43.538;-5.688;2022-12-24T02:14:09;4.53;;;0.95;;
73219;SDS011;61434;43.538;-5.688;2022-12-24T02:30:58;6.00;;;1.50;;
73219;SDS011;61434;43.538;-5.688;2022-12-24T02:33:32;6.72;;;1.30;;
73219;SDS011;61434;43.538;-5.688;2022-12-24T02:38:39;8.30;;;1.20;;
73219;SDS011;61434;43.538;-5.688;2022-12-24T02:43:50;7.60;;;1.30;;
73219;SDS011;61434;43.538;-5.688;2022-12-24T02:46:23;9.32;;;1.50;;
73219;SDS011;61434;43.538;-5.688;2022-12-24T02:48:51;7.90;;;1.13;;
73219;SDS011;61434;43.538;-5.688;2022-12-24T02:51:20;6.28;;;1.38;;
73219;SDS011;61434;43.538;-5.688;2022-12-24T02:53:48;5.90;;;1.27;;
73219;SDS011;61434;43.538;-5.688;2022-12-24T03:01:56;5.78;;;1.65;;
73219;SDS011;61434;43.538;-5.688;2022-12-24T03:04:46;4.30;;;0.90;;
73219;SDS011;61434;43.538;-5.688;2022-12-24T03:12:32;5.05;;;0.80;;
73219;SDS011;61434;43.538;-5.688;2022-12-24T03:15:03;5.97;;;1.08;;
73219;SDS011;61434;43.538;-5.688;2022-12-24T03:17:36;4.90;;;0.87;;
73219;SDS011;61434;43.538;-5.688;2022-12-24T03:20:05;5.13;;;0.80;;
73219;SDS011;61434;43.538;-5.688;2022-12-24T03:22:32;5.85;;;1.10;;
73219;SDS011;61434;43.538;-5.688;2022-12-24T03:24:59;4.05;;;1.02;;
73219;SDS011;61434;43.538;-5.688;2022-12-24T03:27:25;3.83;;;0.88;;
73219;SDS011;61434;43.538;-5.688;2022-12-24T03:29:53;4.33;;;0.70;;
73219;SDS011;61434;43.538;-5.688;2022-12-24T03:32:22;4.60;;;0.77;;
73219;SDS011;61434;43.538;-5.688;2022-12-24T03:34:55;4.97;;;0.80;;
73219;SDS011;61434;43.538;-5.688;2022-12-24T03:37:21;5.87;;;1.00;;
73219;SDS011;61434;43.538;-5.688;2022-12-24T03:39:47;4.68;;;0.90;;
73219;SDS011;61434;43.538;-5.688;2022-12-24T03:42:12;5.63;;;1.23;;
73219;SDS011;61434;43.538;-5.688;2022-12-24T03:44:38;5.32;;;0.90;;
73219;SDS011;61434;43.538;-5.688;2022-12-24T03:47:04;5.20;;;1.00;;
73219;SDS011;61434;43.538;-5.688;2022-12-24T03:49:29;7.63;;;0.90;;
73219;SDS011;61434;43.538;-5.688;2022-12-24T03:51:55;5.87;;;0.90;;
73219;SDS011;61434;43.538;-5.688;2022-12-24T03:54:20;4.40;;;1.10;;
73219;SDS011;61434;43.538;-5.688;2022-12-24T03:56:46;6.40;;;1.30;;
73219;SDS011;61434;43.538;-5.688;2022-12-24T03:59:11;5.55;;;1.00;;
73219;SDS011;61434;43.538;-5.688;2022-12-24T04:01:36;6.67;;;1.00;;
73219;SDS011;61434;43.538;-5.688;2022-12-24T04:04:02;8.30;;;1.37;;
73219;SDS011;61434;43.538;-5.688;2022-12-24T04:06:27;9.07;;;1.20;;
73219;SDS011;61434;43.538;-5.688;2022-12-24T04:08:53;6.13;;;1.02;;
73219;SDS011;61434;43.538;-5.688;2022-12-24T04:11:18;8.07;;;1.17;;
73219;SDS011;61434;43.538;-5.688;2022-12-24T04:13:44;8.20;;;1.47;;
73219;SDS011;61434;43.538;-5.688;2022-12-24T04:16:12;8.15;;;1.10;;
73219;SDS011;61434;43.538;-5.688;2022-12-24T04:18:38;6.43;;;1.10;;
73219;SDS011;61434;43.538;-5.688;2022-12-24T04:21:05;5.00;;;1.20;;
73219;SDS011;61434;43.538;-5.688;2022-12-24T04:23:32;7.20;;;1.58;;
73219;SDS011;61434;43.538;-5.688;2022-12-24T04:25:59;6.93;;;1.23;;
73219;SDS011;61434;43.538;-5.688;2022-12-24T04:28:27;6.38;;;1.15;;
73219;SDS011;61434;43.538;-5.688;2022-12-24T04:30:57;7.00;;;1.30;;
73219;SDS011;61434;43.538;-5.688;2022-12-24T04:33:23;6.47;;;1.30;;
73219;SDS011;61434;43.538;-5.688;2022-12-24T04:35:48;7.47;;;1.83;;
73219;SDS011;61434;43.538;-5.688;2022-12-24T04:38:14;5.82;;;1.15;;
73219;SDS011;61434;43.538;-5.688;2022-12-24T04:40:39;7.37;;;1.50;;
73219;SDS011;61434;43.538;-5.688;2022-12-24T04:43:04;9.33;;;1.30;;
73219;SDS011;61434;43.538;-5.688;2022-12-24T04:45:30;4.97;;;1.50;;
73219;SDS011;61434;43.538;-5.688;2022-12-24T04:47:56;5.53;;;1.20;;
73219;SDS011;61434;43.538;-5.688;2022-12-24T04:50:22;6.88;;;1.27;;
73219;SDS011;61434;43.538;-5.688;2022-12-24T04:52:47;5.53;;;1.10;;
73219;SDS011;61434;43.538;-5.688;2022-12-24T04:55:13;7.53;;;1.50;;
73219;SDS011;61434;43.538;-5.688;2022-12-24T04:57:38;6.30;;;0.97;;
73219;SDS011;61434;43.538;-5.688;2022-12-24T05:00:04;5.68;;;1.13;;
73219;SDS011;61434;43.538;-5.688;2022-12-24T05:02:31;8.27;;;1.53;;
73219;SDS011;61434;43.538;-5.688;2022-12-24T05:04:57;6.18;;;1.30;;
73219;SDS011;61434;43.538;-5.688;2022-12-24T05:07:22;4.67;;;1.23;;
73219;SDS011;61434;43.538;-5.688;2022-12-24T05:09:47;4.77;;;1.33;;
73219;SDS011;61434;43.538;-5.688;2022-12-24T05:12:13;5.55;;;1.33;;
73219;SDS011;61434;43.538;-5.688;2022-12-24T05:14:38;6.50;;;1.43;;
73219;SDS011;61434;43.538;-5.688;2022-12-24T05:17:04;6.57;;;1.30;;
73219;SDS011;61434;43.538;-5.688;2022-12-24T05:19:30;6.57;;;1.35;;
73219;SDS011;61434;43.538;-5.688;2022-12-24T05:21:56;13.80;;;1.30;;
73219;SDS011;61434;43.538;-5.688;2022-12-24T05:24:40;5.13;;;1.20;;
73219;SDS011;61434;43.538;-5.688;2022-12-24T05:27:24;6.57;;;1.42;;
73219;SDS011;61434;43.538;-5.688;2022-12-24T05:29:50;6.15;;;1.35;;
73219;SDS011;61434;43.538;-5.688;2022-12-24T05:32:15;7.33;;;1.77;;
73219;SDS011;61434;43.538;-5.688;2022-12-24T05:34:40;5.40;;;1.30;;
73219;SDS011;61434;43.538;-5.688;2022-12-24T05:37:06;6.10;;;1.70;;
73219;SDS011;61434;43.538;-5.688;2022-12-24T05:39:31;8.90;;;1.38;;
73219;SDS011;61434;43.538;-5.688;2022-12-24T05:41:57;7.53;;;1.70;;
73219;SDS011;61434;43.538;-5.688;2022-12-24T05:44:22;6.87;;;1.80;;
73219;SDS011;61434;43.538;-5.688;2022-12-24T05:46:48;7.40;;;1.53;;
73219;SDS011;61434;43.538;-5.688;2022-12-24T05:49:13;9.67;;;1.80;;
73219;SDS011;61434;43.538;-5.688;2022-12-24T05:51:39;9.30;;;1.70;;
73219;SDS011;61434;43.538;-5.688;2022-12-24T05:54:05;9.23;;;1.80;;
73219;SDS011;61434;43.538;-5.688;2022-12-24T05:56:31;8.40;;;1.60;;
73219;SDS011;61434;43.538;-5.688;2022-12-24T05:58:56;9.65;;;2.05;;
73219;SDS011;61434;43.538;-5.688;2022-12-24T06:01:22;10.50;;;2.47;;
73219;SDS011;61434;43.538;-5.688;2022-12-24T06:03:48;13.60;;;2.00;;
73219;SDS011;61434;43.538;-5.688;2022-12-24T06:06:15;8.93;;;1.90;;
73219;SDS011;61434;43.538;-5.688;2022-12-24T06:08:45;14.00;;;2.43;;
73219;SDS011;61434;43.538;-5.688;2022-12-24T06:11:12;11.32;;;1.77;;
73219;SDS011;61434;43.538;-5.688;2022-12-24T06:13:40;11.20;;;1.98;;
73219;SDS011;61434;43.538;-5.688;2022-12-24T06:16:08;10.10;;;1.77;;
73219;SDS011;61434;43.538;-5.688;2022-12-24T06:18:36;9.55;;;2.08;;
73219;SDS011;61434;43.538;-5.688;2022-12-24T06:21:02;10.73;;;1.60;;
73219;SDS011;61434;43.538;-5.688;2022-12-24T06:23:29;13.60;;;2.10;;
73219;SDS011;61434;43.538;-5.688;2022-12-24T06:25:57;10.32;;;1.85;;
73219;SDS011;61434;43.538;-5.688;2022-12-24T06:28:25;9.03;;;1.63;;
73219;SDS011;61434;43.538;-5.688;2022-12-24T06:30:54;6.10;;;1.50;;
73219;SDS011;61434;43.538;-5.688;2022-12-24T06:33:20;8.90;;;1.65;;
73219;SDS011;61434;43.538;-5.688;2022-12-24T06:35:45;9.47;;;1.77;;
73219;SDS011;61434;43.538;-5.688;2022-12-24T06:38:12;9.40;;;1.60;;
73219;SDS011;61434;43.538;-5.688;2022-12-24T06:40:39;7.17;;;1.53;;
73219;SDS011;61434;43.538;-5.688;2022-12-24T06:43:06;7.38;;;1.60;;
73219;SDS011;61434;43.538;-5.688;2022-12-24T06:45:31;7.45;;;2.10;;
73219;SDS011;61434;43.538;-5.688;2022-12-24T06:47:57;4.43;;;1.30;;
73219;SDS011;61434;43.538;-5.688;2022-12-24T06:50:23;5.93;;;1.75;;
73219;SDS011;61434;43.538;-5.688;2022-12-24T06:52:48;7.40;;;1.80;;
73219;SDS011;61434;43.538;-5.688;2022-12-24T06:55:14;7.17;;;1.97;;
73219;SDS011;61434;43.538;-5.688;2022-12-24T06:57:40;5.60;;;2.07;;
73219;SDS011;61434;43.538;-5.688;2022-12-24T07:00:06;5.63;;;2.30;;
73219;SDS011;61434;43.538;-5.688;2022-12-24T07:02:33;5.77;;;1.90;;
73219;SDS011;61434;43.538;-5.688;2022-12-24T07:04:59;6.60;;;2.47;;
73219;SDS011;61434;43.538;-5.688;2022-12-24T07:07:24;8.20;;;2.10;;
73219;SDS011;61434;43.538;-5.688;2022-12-24T07:09:50;6.60;;;2.60;;
73219;SDS011;61434;43.538;-5.688;2022-12-24T07:12:15;6.37;;;2.20;;
73219;SDS011;61434;43.538;-5.688;2022-12-24T07:14:41;6.03;;;2.20;;
73219;SDS011;61434;43.538;-5.688;2022-12-24T07:17:06;7.17;;;2.40;;
73219;SDS011;61434;43.538;-5.688;2022-12-24T07:19:32;6.10;;;2.37;;
73219;SDS011;61434;43.538;-5.688;2022-12-24T07:21:58;6.97;;;2.38;;
73219;SDS011;61434;43.538;-5.688;2022-12-24T07:24:24;5.17;;;2.30;;
73219;SDS011;61434;43.538;-5.688;2022-12-24T07:26:49;6.37;;;2.53;;
73219;SDS011;61434;43.538;-5.688;2022-12-24T07:29:15;9.07;;;3.10;;
73219;SDS011;61434;43.538;-5.688;2022-12-24T07:31:40;7.57;;;2.50;;
73219;SDS011;61434;43.538;-5.688;2022-12-24T07:34:06;6.60;;;3.03;;
73219;SDS011;61434;43.538;-5.688;2022-12-24T07:36:31;7.70;;;2.77;;
73219;SDS011;61434;43.538;-5.688;2022-12-24T07:38:57;7.53;;;3.50;;
73219;SDS011;61434;43.538;-5.688;2022-12-24T07:41:22;7.40;;;3.07;;
73219;SDS011;61434;43.538;-5.688;2022-12-24T07:43:47;8.68;;;3.10;;
73219;SDS011;61434;43.538;-5.688;2022-12-24T07:46:13;8.43;;;3.37;;
73219;SDS011;61434;43.538;-5.688;2022-12-24T07:48:38;7.00;;;3.57;;
73219;SDS011;61434;43.538;-5.688;2022-12-24T07:51:04;8.67;;;3.93;;
73219;SDS011;61434;43.538;-5.688;2022-12-24T07:53:30;9.35;;;3.80;;
73219;SDS011;61434;43.538;-5.688;2022-12-24T07:55:56;9.20;;;4.07;;
73219;SDS011;61434;43.538;-5.688;2022-12-24T07:58:22;7.85;;;4.50;;
73219;SDS011;61434;43.538;-5.688;2022-12-24T08:00:48;11.55;;;4.85;;
73219;SDS011;61434;43.538;-5.688;2022-12-24T08:03:17;9.20;;;4.50;;
73219;SDS011;61434;43.538;-5.688;2022-12-24T08:05:44;10.93;;;4.80;;
73219;SDS011;61434;43.538;-5.688;2022-12-24T08:08:10;9.65;;;4.85;;
73219;SDS011;61434;43.538;-5.688;2022-12-24T08:10:39;11.33;;;6.03;;
73219;SDS011;61434;43.538;-5.688;2022-12-24T08:13:08;14.13;;;5.50;;
73219;SDS011;61434;43.538;-5.688;2022-12-24T08:15:34;12.13;;;6.35;;
73219;SDS011;61434;43.538;-5.688;2022-12-24T08:17:59;11.83;;;5.97;;
73219;SDS011;61434;43.538;-5.688;2022-12-24T08:20:24;13.00;;;6.60;;
73219;SDS011;61434;43.538;-5.688;2022-12-24T08:22:51;12.70;;;6.47;;
73219;SDS011;61434;43.538;-5.688;2022-12-24T08:25:17;11.05;;;6.20;;
73219;SDS011;61434;43.538;-5.688;2022-12-24T08:27:42;11.43;;;6.20;;
73219;SDS011;61434;43.538;-5.688;2022-12-24T08:30:08;11.90;;;6.13;;
73219;SDS011;61434;43.538;-5.688;2022-12-24T08:32:34;12.93;;;5.83;;
73219;SDS011;61434;43.538;-5.688;2022-12-24T08:34:59;11.68;;;6.65;;
73219;SDS011;61434;43.538;-5.688;2022-12-24T08:37:25;13.17;;;6.37;;
73219;SDS011;61434;43.538;-5.688;2022-12-24T08:39:50;14.27;;;6.90;;
73219;SDS011;61434;43.538;-5.688;2022-12-24T08:42:15;14.07;;;7.00;;
73219;SDS011;61434;43.538;-5.688;2022-12-24T08:44:41;14.63;;;6.90;;
73219;SDS011;61434;43.538;-5.688;2022-12-24T08:47:06;15.23;;;7.43;;
73219;SDS011;61434;43.538;-5.688;2022-12-24T08:49:32;15.80;;;7.27;;
73219;SDS011;61434;43.538;-5.688;2022-12-24T08:51:57;14.20;;;8.20;;
73219;SDS011;61434;43.538;-5.688;2022-12-24T08:54:23;20.17;;;9.25;;
73219;SDS011;61434;43.538;-5.688;2022-12-24T08:56:49;16.33;;;8.93;;
73219;SDS011;61434;43.538;-5.688;2022-12-24T08:59:15;15.25;;;7.72;;
73219;SDS011;61434;43.538;-5.688;2022-12-24T09:01:41;15.63;;;8.10;;
73219;SDS011;61434;43.538;-5.688;2022-12-24T09:04:06;17.53;;;7.67;;
73219;SDS011;61434;43.538;-5.688;2022-12-24T09:06:33;17.50;;;9.30;;
73219;SDS011;61434;43.538;-5.688;2022-12-24T09:09:00;18.00;;;8.73;;
73219;SDS011;61434;43.538;-5.688;2022-12-24T09:11:25;18.33;;;9.30;;
73219;SDS011;61434;43.538;-5.688;2022-12-24T09:13:51;17.23;;;9.45;;
73219;SDS011;61434;43.538;-5.688;2022-12-24T09:16:17;17.02;;;9.07;;
73219;SDS011;61434;43.538;-5.688;2022-12-24T09:18:43;19.07;;;9.20;;
73219;SDS011;61434;43.538;-5.688;2022-12-24T09:21:09;20.63;;;10.13;;
73219;SDS011;61434;43.538;-5.688;2022-12-24T09:23:38;20.20;;;10.02;;
73219;SDS011;61434;43.538;-5.688;2022-12-24T09:26:23;18.20;;;9.63;;
73219;SDS011;61434;43.538;-5.688;2022-12-24T09:28:50;16.10;;;9.02;;
73219;SDS011;61434;43.538;-5.688;2022-12-24T09:31:16;16.25;;;9.05;;
73219;SDS011;61434;43.538;-5.688;2022-12-24T09:33:42;19.17;;;8.97;;
73219;SDS011;61434;43.538;-5.688;2022-12-24T09:36:09;17.58;;;9.57;;
73219;SDS011;61434;43.538;-5.688;2022-12-24T09:38:35;17.17;;;9.07;;
73219;SDS011;61434;43.538;-5.688;2022-12-24T09:41:09;13.70;;;9.05;;
73219;SDS011;61434;43.538;-5.688;2022-12-24T09:43:42;16.13;;;9.30;;
73219;SDS011;61434;43.538;-5.688;2022-12-24T09:49:05;15.18;;;9.88;;
73219;SDS011;61434;43.538;-5.688;2022-12-24T09:51:42;15.63;;;9.00;;
73219;SDS011;61434;43.538;-5.688;2022-12-24T09:54:12;14.75;;;9.35;;
73219;SDS011;61434;43.538;-5.688;2022-12-24T09:56:44;17.45;;;9.63;;
73219;SDS011;61434;43.538;-5.688;2022-12-24T09:59:18;17.90;;;10.18;;
73219;SDS011;61434;43.538;-5.688;2022-12-24T10:01:46;20.05;;;10.52;;
73219;SDS011;61434;43.538;-5.688;2022-12-24T10:04:18;23.95;;;12.73;;
73219;SDS011;61434;43.538;-5.688;2022-12-24T10:12:24;14.30;;;8.55;;
73219;SDS011;61434;43.538;-5.688;2022-12-24T10:23:29;16.88;;;8.70;;
73219;SDS011;61434;43.538;-5.688;2022-12-24T10:26:06;16.88;;;8.65;;
73219;SDS011;61434;43.538;-5.688;2022-12-24T10:29:20;16.30;;;9.07;;
73219;SDS011;61434;43.538;-5.688;2022-12-24T10:31:25;15.23;;;8.77;;
73219;SDS011;61434;43.538;-5.688;2022-12-24T10:34:03;19.55;;;10.35;;
73219;SDS011;61434;43.538;-5.688;2022-12-24T10:36:36;15.13;;;9.55;;
73219;SDS011;61434;43.538;-5.688;2022-12-24T10:39:01;18.88;;;10.98;;
73219;SDS011;61434;43.538;-5.688;2022-12-24T10:41:27;17.42;;;10.82;;
73219;SDS011;61434;43.538;-5.688;2022-12-24T10:43:54;19.13;;;10.13;;
73219;SDS011;61434;43.538;-5.688;2022-12-24T10:46:32;22.43;;;11.40;;
73219;SDS011;61434;43.538;-5.688;2022-12-24T10:49:06;19.10;;;10.20;;
73219;SDS011;61434;43.538;-5.688;2022-12-24T10:51:47;18.33;;;10.40;;
73219;SDS011;61434;43.538;-5.688;2022-12-24T10:54:19;20.98;;;9.20;;
73219;SDS011;61434;43.538;-5.688;2022-12-24T10:56:50;19.42;;;9.48;;
73219;SDS011;61434;43.538;-5.688;2022-12-24T11:02:23;20.67;;;9.55;;
73219;SDS011;61434;43.538;-5.688;2022-12-24T11:04:49;20.00;;;10.15;;
73219;SDS011;61434;43.538;-5.688;2022-12-24T11:07:19;17.85;;;9.38;;
73219;SDS011;61434;43.538;-5.688;2022-12-24T11:09:53;21.67;;;9.77;;
73219;SDS011;61434;43.538;-5.688;2022-12-24T11:12:25;19.13;;;10.37;;
73219;SDS011;61434;43.538;-5.688;2022-12-24T11:15:01;19.35;;;9.93;;
73219;SDS011;61434;43.538;-5.688;2022-12-24T11:17:27;17.30;;;10.15;;
73219;SDS011;61434;43.538;-5.688;2022-12-24T11:19:53;23.08;;;9.52;;
73219;SDS011;61434;43.538;-5.688;2022-12-24T11:22:22;22.30;;;9.40;;
73219;SDS011;61434;43.538;-5.688;2022-12-24T11:27:48;20.17;;;9.40;;
73219;SDS011;61434;43.538;-5.688;2022-12-24T11:32:41;14.27;;;5.70;;
73219;SDS011;61434;43.538;-5.688;2022-12-24T11:35:08;9.87;;;4.00;;
73219;SDS011;61434;43.538;-5.688;2022-12-24T11:37:41;17.42;;;8.70;;
73219;SDS011;61434;43.538;-5.688;2022-12-24T11:40:17;13.10;;;6.70;;
73219;SDS011;61434;43.538;-5.688;2022-12-24T11:42:45;15.32;;;6.40;;
73219;SDS011;61434;43.538;-5.688;2022-12-24T11:45:22;14.67;;;5.97;;
73219;SDS011;61434;43.538;-5.688;2022-12-24T11:47:50;15.82;;;6.68;;
73219;SDS011;61434;43.538;-5.688;2022-12-24T11:53:11;13.98;;;5.82;;
73219;SDS011;61434;43.538;-5.688;2022-12-24T11:55:48;11.32;;;4.32;;
73219;SDS011;61434;43.538;-5.688;2022-12-24T12:01:24;11.73;;;4.07;;
73219;SDS011;61434;43.538;-5.688;2022-12-24T12:11:43;11.88;;;4.20;;
73219;SDS011;61434;43.538;-5.688;2022-12-24T12:14:16;9.88;;;2.92;;
73219;SDS011;61434;43.538;-5.688;2022-12-24T12:19:24;9.20;;;2.72;;
73219;SDS011;61434;43.538;-5.688;2022-12-24T12:21:55;8.95;;;2.50;;
73219;SDS011;61434;43.538;-5.688;2022-12-24T12:24:33;13.25;;;4.00;;
73219;SDS011;61434;43.538;-5.688;2022-12-24T12:29:57;13.10;;;4.40;;
73219;SDS011;61434;43.538;-5.688;2022-12-24T12:35:22;13.32;;;4.18;;
73219;SDS011;61434;43.538;-5.688;2022-12-24T12:37:55;11.48;;;3.95;;
73219;SDS011;61434;43.538;-5.688;2022-12-24T12:45:53;12.60;;;4.23;;
73219;SDS011;61434;43.538;-5.688;2022-12-24T12:51:13;17.23;;;5.45;;
73219;SDS011;61434;43.538;-5.688;2022-12-24T12:54:01;14.63;;;4.75;;
73219;SDS011;61434;43.538;-5.688;2022-12-24T12:56:31;16.45;;;4.85;;
73219;SDS011;61434;43.538;-5.688;2022-12-24T13:12:46;13.80;;;3.33;;
73219;SDS011;61434;43.538;-5.688;2022-12-24T13:21:24;14.13;;;3.57;;
73219;SDS011;61434;43.538;-5.688;2022-12-24T13:24:05;10.27;;;3.50;;
73219;SDS011;61434;43.538;-5.688;2022-12-24T13:26:31;8.77;;;3.25;;
73219;SDS011;61434;43.538;-5.688;2022-12-24T13:34:55;11.82;;;3.22;;
73219;SDS011;61434;43.538;-5.688;2022-12-24T13:53:03;15.55;;;2.60;;
73219;SDS011;61434;43.538;-5.688;2022-12-24T13:55:30;10.80;;;2.40;;
73219;SDS011;61434;43.538;-5.688;2022-12-24T13:58:03;7.45;;;1.92;;
73219;SDS011;61434;43.538;-5.688;2022-12-24T14:00:31;9.23;;;2.25;;
73219;SDS011;61434;43.538;-5.688;2022-12-24T14:03:20;7.40;;;2.13;;
73219;SDS011;61434;43.538;-5.688;2022-12-24T14:05:51;9.27;;;2.30;;
73219;SDS011;61434;43.538;-5.688;2022-12-24T14:08:31;7.90;;;2.00;;
73219;SDS011;61434;43.538;-5.688;2022-12-24T14:11:04;7.22;;;1.90;;
73219;SDS011;61434;43.538;-5.688;2022-12-24T14:19:12;7.57;;;2.28;;
73219;SDS011;61434;43.538;-5.688;2022-12-24T14:21:41;8.63;;;2.40;;
73219;SDS011;61434;43.538;-5.688;2022-12-24T14:24:15;10.03;;;2.27;;
73219;SDS011;61434;43.538;-5.688;2022-12-24T14:27:07;6.85;;;2.20;;
73219;SDS011;61434;43.538;-5.688;2022-12-24T14:32:39;9.63;;;2.90;;
73219;SDS011;61434;43.538;-5.688;2022-12-24T14:35:13;6.30;;;2.60;;
73219;SDS011;61434;43.538;-5.688;2022-12-24T14:37:51;9.23;;;2.80;;
73219;SDS011;61434;43.538;-5.688;2022-12-24T14:40:30;10.98;;;3.20;;
73219;SDS011;61434;43.538;-5.688;2022-12-24T14:43:17;9.48;;;3.03;;
73219;SDS011;61434;43.538;-5.688;2022-12-24T14:46:01;13.05;;;3.70;;
73219;SDS011;61434;43.538;-5.688;2022-12-24T14:48:38;10.57;;;3.35;;
73219;SDS011;61434;43.538;-5.688;2022-12-24T14:56:41;14.25;;;3.45;;
73219;SDS011;61434;43.538;-5.688;2022-12-24T14:59:17;11.13;;;3.77;;
73219;SDS011;61434;43.538;-5.688;2022-12-24T15:01:44;9.43;;;3.45;;
73219;SDS011;61434;43.538;-5.688;2022-12-24T15:06:39;11.53;;;3.50;;
73219;SDS011;61434;43.538;-5.688;2022-12-24T15:11:54;9.88;;;2.97;;
73219;SDS011;61434;43.538;-5.688;2022-12-24T15:14:23;9.23;;;3.57;;
73219;SDS011;61434;43.538;-5.688;2022-12-24T15:16:54;9.88;;;3.40;;
73219;SDS011;61434;43.538;-5.688;2022-12-24T15:19:26;9.90;;;3.83;;
73219;SDS011;61434;43.538;-5.688;2022-12-24T15:21:56;11.52;;;3.42;;
73219;SDS011;61434;43.538;-5.688;2022-12-24T15:24:28;9.87;;;3.40;;
73219;SDS011;61434;43.538;-5.688;2022-12-24T15:26:56;11.13;;;3.60;;
73219;SDS011;61434;43.538;-5.688;2022-12-24T15:29:25;10.23;;;3.20;;
73219;SDS011;61434;43.538;-5.688;2022-12-24T15:31:53;10.52;;;2.75;;
73219;SDS011;61434;43.538;-5.688;2022-12-24T15:34:24;10.20;;;3.10;;
73219;SDS011;61434;43.538;-5.688;2022-12-24T15:39:35;12.73;;;3.53;;
73219;SDS011;61434;43.538;-5.688;2022-12-24T15:42:03;12.45;;;5.30;;
73219;SDS011;61434;43.538;-5.688;2022-12-24T15:44:41;14.00;;;5.18;;
73219;SDS011;61434;43.538;-5.688;2022-12-24T15:47:15;13.43;;;4.10;;
73219;SDS011;61434;43.538;-5.688;2022-12-24T15:49:46;18.70;;;7.63;;
73219;SDS011;61434;43.538;-5.688;2022-12-24T15:52:14;14.53;;;6.13;;
73219;SDS011;61434;43.538;-5.688;2022-12-24T15:54:43;15.70;;;6.18;;
73219;SDS011;61434;43.538;-5.688;2022-12-24T15:57:32;12.27;;;4.45;;
73219;SDS011;61434;43.538;-5.688;2022-12-24T15:59:57;11.43;;;3.97;;
73219;SDS011;61434;43.538;-5.688;2022-12-24T16:02:35;10.35;;;3.90;;
73219;SDS011;61434;43.538;-5.688;2022-12-24T16:13:29;15.40;;;5.07;;
73219;SDS011;61434;43.538;-5.688;2022-12-24T16:16:00;10.80;;;4.15;;
73219;SDS011;61434;43.538;-5.688;2022-12-24T16:18:32;12.83;;;4.20;;
73219;SDS011;61434;43.538;-5.688;2022-12-24T16:21:03;14.57;;;4.35;;
73219;SDS011;61434;43.538;-5.688;2022-12-24T16:26:12;13.75;;;4.40;;
73219;SDS011;61434;43.538;-5.688;2022-12-24T16:28:38;12.03;;;3.70;;
73219;SDS011;61434;43.538;-5.688;2022-12-24T16:31:03;9.10;;;2.60;;
73219;SDS011;61434;43.538;-5.688;2022-12-24T16:33:29;8.27;;;1.70;;
73219;SDS011;61434;43.538;-5.688;2022-12-24T16:35:55;5.13;;;1.00;;
73219;SDS011;61434;43.538;-5.688;2022-12-24T16:38:21;5.20;;;1.00;;
73219;SDS011;61434;43.538;-5.688;2022-12-24T16:40:47;5.90;;;1.83;;
73219;SDS011;61434;43.538;-5.688;2022-12-24T16:43:13;4.47;;;0.90;;
73219;SDS011;61434;43.538;-5.688;2022-12-24T16:46:01;4.97;;;1.00;;
73219;SDS011;61434;43.538;-5.688;2022-12-24T16:48:29;5.83;;;1.20;;
73219;SDS011;61434;43.538;-5.688;2022-12-24T16:50:55;5.35;;;1.20;;
73219;SDS011;61434;43.538;-5.688;2022-12-24T16:53:20;4.78;;;1.15;;
73219;SDS011;61434;43.538;-5.688;2022-12-24T16:55:47;5.47;;;1.10;;
73219;SDS011;61434;43.538;-5.688;2022-12-24T16:58:15;6.43;;;1.10;;
73219;SDS011;61434;43.538;-5.688;2022-12-24T17:00:42;7.30;;;1.10;;
73219;SDS011;61434;43.538;-5.688;2022-12-24T17:03:08;7.68;;;1.30;;
73219;SDS011;61434;43.538;-5.688;2022-12-24T17:05:38;4.53;;;1.03;;
73219;SDS011;61434;43.538;-5.688;2022-12-24T17:08:05;5.68;;;1.20;;
73219;SDS011;61434;43.538;-5.688;2022-12-24T17:10:30;7.97;;;1.23;;
73219;SDS011;61434;43.538;-5.688;2022-12-24T17:12:56;4.10;;;1.00;;
73219;SDS011;61434;43.538;-5.688;2022-12-24T17:15:22;9.60;;;1.10;;
73219;SDS011;61434;43.538;-5.688;2022-12-24T17:17:47;4.38;;;1.02;;
73219;SDS011;61434;43.538;-5.688;2022-12-24T17:20:13;7.73;;;1.07;;
73219;SDS011;61434;43.538;-5.688;2022-12-24T17:22:38;5.37;;;1.10;;